Trujillo Alto, Puerto Rico

5:06 AM AST on February 14, 2016 (GMT -0400)
Colinas de Fairview | | Change Station
CLOSE
Current Station
Personal Weather Station
Location: Trujillo Alto, PR
Elevation: 308 ft
Nearby Weather Stations

Elev 308 ft 18.36 °N, 66.03 °W | Updated 3 seconds ago

Partly Cloudy
Partly Cloudy
68.5 °F
Feels Like 68.5 °F
N
0.0
Wind Variable Wind from ESE

Today
High -- | Low -- °F
--% Chance of Precip.
Yesterday
High -- | Low -- °F
Precip. -- in
Pressure 29.96 in
Visibility 10.0 miles
Clouds Few 9500 ft
Dew Point 68 °F
Humidity 97%
Rainfall 0.00 in
Snow Depth Not available.
6:52 AM 6:24 PM
Waxing Crescent, 39% visible
METAR TJSJ 140856Z 00000KT 10SM FEW095 23/21 A2996 RMK AO2 SLP144 60005 T02280206 56019
Pressure 29.96 in
Visibility 10.0 miles
Clouds Few 9500 ft
Dew Point 68 °F
Humidity 97%
Rainfall 0.00 in
Snow Depth Not available.
6:52 AM 6:24 PM
Waxing Crescent, 39% visible
METAR TJSJ 140856Z 00000KT 10SM FEW095 23/21 A2996 RMK AO2 SLP144 60005 T02280206 56019

10-Day Weather Forecast

Almanac

Astronomy

Feb. 14, 2016 Rise Set
Actual Time
Civil Twilight
Nautical Twilight
Astronomical Twilight
Moon
Length of Visible Light
Length of Day
Tomorrow will be .
, % of the Moon is Illuminated

Today's Extremes

Country Highs Country Lows

Community

WunderPhotos

Upload Photos

1,892,763 photos uploaded!

WunderBlog® & News

Nearby

Air Quality

  Air Quality AQ Index Pollutant
Not available.

Snow Depth

Station Depth Elevation

Earthquake Activity

City Distance Mag. Time & Date
Minimum magnitude displayed is 2.5.

Coastal Water Temperatures

Place Temperature

Stations

Nearby Weather Stations

Station Location Temp. Windchill Dew Point Humidity Wind Precip. Elev Updated Type